Terminal Aerodrome Forecast
Issued by NWS

Current Version | Previous Version | Text Only | Print | Product List | Glossary On
Versions: 1 2 3 4 5 6 7 8 9 10 11 12 13 14 15 16 17 18 19 20 21 22 23 24 25 26 27 28 29 30 31 32 33 34 35 36 37 38 39 40 41 42 43 44
000 FTUS42 KRAH 202028 AAA TAFINT TAF AMD KINT 202028Z 2020/2118 21010KT P6SM SCT250 FM202300 22006KT P6SM OVC100 FM210800 29005KT P6SM SKC FM211700 30010KT P6SM BKN050=

USA.gov is the U.S. government's official web portal to all federal, state and local government web resources and services.